sensor_id;sensor_type;location;lat;lon;timestamp;P1;durP1;ratioP1;P2;durP2;ratioP2
13335;SDS011;6737;51.480;11.962;2023-04-22T00:02:04;11.88;;;9.02;;
13335;SDS011;6737;51.480;11.962;2023-04-22T00:04:30;12.07;;;9.40;;
13335;SDS011;6737;51.480;11.962;2023-04-22T00:06:58;11.75;;;9.40;;
13335;SDS011;6737;51.480;11.962;2023-04-22T00:09:24;12.05;;;9.60;;
13335;SDS011;6737;51.480;11.962;2023-04-22T00:11:50;12.10;;;9.07;;
13335;SDS011;6737;51.480;11.962;2023-04-22T00:14:16;11.47;;;8.70;;
13335;SDS011;6737;51.480;11.962;2023-04-22T00:16:42;10.70;;;8.20;;
13335;SDS011;6737;51.480;11.962;2023-04-22T00:19:08;9.97;;;8.40;;
13335;SDS011;6737;51.480;11.962;2023-04-22T00:21:34;11.10;;;8.33;;
13335;SDS011;6737;51.480;11.962;2023-04-22T00:23:59;12.63;;;8.30;;
13335;SDS011;6737;51.480;11.962;2023-04-22T00:26:26;10.87;;;8.90;;
13335;SDS011;6737;51.480;11.962;2023-04-22T00:28:52;13.17;;;8.63;;
13335;SDS011;6737;51.480;11.962;2023-04-22T00:31:17;16.63;;;8.87;;
13335;SDS011;6737;51.480;11.962;2023-04-22T00:33:43;12.03;;;8.87;;
13335;SDS011;6737;51.480;11.962;2023-04-22T00:36:09;15.87;;;8.50;;
13335;SDS011;6737;51.480;11.962;2023-04-22T00:38:34;11.97;;;9.03;;
13335;SDS011;6737;51.480;11.962;2023-04-22T00:41:01;14.20;;;8.63;;
13335;SDS011;6737;51.480;11.962;2023-04-22T00:43:27;12.17;;;8.63;;
13335;SDS011;6737;51.480;11.962;2023-04-22T00:45:53;10.77;;;8.80;;
13335;SDS011;6737;51.480;11.962;2023-04-22T00:48:19;11.27;;;8.73;;
13335;SDS011;6737;51.480;11.962;2023-04-22T00:50:45;11.87;;;9.00;;
13335;SDS011;6737;51.480;11.962;2023-04-22T00:53:11;11.30;;;8.83;;
13335;SDS011;6737;51.480;11.962;2023-04-22T00:55:37;13.60;;;8.80;;
13335;SDS011;6737;51.480;11.962;2023-04-22T00:58:02;13.30;;;8.80;;
13335;SDS011;6737;51.480;11.962;2023-04-22T01:00:29;12.47;;;8.90;;
13335;SDS011;6737;51.480;11.962;2023-04-22T01:02:55;11.67;;;9.00;;
13335;SDS011;6737;51.480;11.962;2023-04-22T01:05:22;10.57;;;9.13;;
13335;SDS011;6737;51.480;11.962;2023-04-22T01:07:49;9.73;;;8.73;;
13335;SDS011;6737;51.480;11.962;2023-04-22T01:10:15;12.13;;;8.97;;
13335;SDS011;6737;51.480;11.962;2023-04-22T01:12:42;10.97;;;8.70;;
13335;SDS011;6737;51.480;11.962;2023-04-22T01:15:08;12.97;;;8.43;;
13335;SDS011;6737;51.480;11.962;2023-04-22T01:17:34;11.87;;;8.60;;
13335;SDS011;6737;51.480;11.962;2023-04-22T01:20:00;12.67;;;9.00;;
13335;SDS011;6737;51.480;11.962;2023-04-22T01:22:30;15.50;;;8.30;;
13335;SDS011;6737;51.480;11.962;2023-04-22T01:25:06;10.43;;;8.40;;
13335;SDS011;6737;51.480;11.962;2023-04-22T01:27:33;11.13;;;8.40;;
13335;SDS011;6737;51.480;11.962;2023-04-22T01:29:59;11.20;;;8.07;;
13335;SDS011;6737;51.480;11.962;2023-04-22T01:32:25;10.57;;;8.27;;
13335;SDS011;6737;51.480;11.962;2023-04-22T01:34:52;10.93;;;8.03;;
13335;SDS011;6737;51.480;11.962;2023-04-22T01:37:18;12.60;;;8.70;;
13335;SDS011;6737;51.480;11.962;2023-04-22T01:39:44;9.77;;;7.90;;
13335;SDS011;6737;51.480;11.962;2023-04-22T01:42:11;12.47;;;8.43;;
13335;SDS011;6737;51.480;11.962;2023-04-22T01:44:38;12.57;;;8.30;;
13335;SDS011;6737;51.480;11.962;2023-04-22T01:47:03;12.63;;;8.43;;
13335;SDS011;6737;51.480;11.962;2023-04-22T01:49:29;9.57;;;8.13;;
13335;SDS011;6737;51.480;11.962;2023-04-22T01:51:56;13.47;;;8.23;;
13335;SDS011;6737;51.480;11.962;2023-04-22T01:54:22;10.37;;;8.40;;
13335;SDS011;6737;51.480;11.962;2023-04-22T01:56:49;12.87;;;8.03;;
13335;SDS011;6737;51.480;11.962;2023-04-22T01:59:17;12.17;;;8.17;;
13335;SDS011;6737;51.480;11.962;2023-04-22T02:01:43;11.63;;;7.70;;
13335;SDS011;6737;51.480;11.962;2023-04-22T02:04:09;12.80;;;7.73;;
13335;SDS011;6737;51.480;11.962;2023-04-22T02:06:35;9.27;;;7.90;;
13335;SDS011;6737;51.480;11.962;2023-04-22T02:09:01;12.40;;;8.50;;
13335;SDS011;6737;51.480;11.962;2023-04-22T02:11:26;9.53;;;7.80;;
13335;SDS011;6737;51.480;11.962;2023-04-22T02:13:52;11.57;;;8.33;;
13335;SDS011;6737;51.480;11.962;2023-04-22T02:16:18;13.80;;;8.47;;
13335;SDS011;6737;51.480;11.962;2023-04-22T02:18:44;11.93;;;8.10;;
13335;SDS011;6737;51.480;11.962;2023-04-22T02:21:10;10.60;;;8.00;;
13335;SDS011;6737;51.480;11.962;2023-04-22T02:23:35;11.93;;;8.17;;
13335;SDS011;6737;51.480;11.962;2023-04-22T02:26:03;11.15;;;9.13;;
13335;SDS011;6737;51.480;11.962;2023-04-22T02:28:29;9.75;;;8.57;;
13335;SDS011;6737;51.480;11.962;2023-04-22T02:30:54;10.20;;;7.97;;
13335;SDS011;6737;51.480;11.962;2023-04-22T02:33:20;11.83;;;7.67;;
13335;SDS011;6737;51.480;11.962;2023-04-22T02:35:47;12.53;;;7.97;;
13335;SDS011;6737;51.480;11.962;2023-04-22T02:38:13;11.03;;;7.57;;
13335;SDS011;6737;51.480;11.962;2023-04-22T02:40:38;13.47;;;8.17;;
13335;SDS011;6737;51.480;11.962;2023-04-22T02:43:04;12.90;;;8.30;;
13335;SDS011;6737;51.480;11.962;2023-04-22T02:45:31;13.83;;;8.10;;
13335;SDS011;6737;51.480;11.962;2023-04-22T02:47:56;8.80;;;7.60;;
13335;SDS011;6737;51.480;11.962;2023-04-22T02:50:22;11.97;;;8.20;;
13335;SDS011;6737;51.480;11.962;2023-04-22T02:52:48;15.97;;;8.10;;
13335;SDS011;6737;51.480;11.962;2023-04-22T02:55:14;11.33;;;8.00;;
13335;SDS011;6737;51.480;11.962;2023-04-22T02:57:40;12.47;;;7.97;;
13335;SDS011;6737;51.480;11.962;2023-04-22T03:00:06;9.87;;;7.30;;
13335;SDS011;6737;51.480;11.962;2023-04-22T03:02:32;11.67;;;8.60;;
13335;SDS011;6737;51.480;11.962;2023-04-22T03:04:58;10.23;;;8.07;;
13335;SDS011;6737;51.480;11.962;2023-04-22T03:07:25;10.47;;;8.10;;
13335;SDS011;6737;51.480;11.962;2023-04-22T03:09:50;11.17;;;8.07;;
13335;SDS011;6737;51.480;11.962;2023-04-22T03:12:16;11.27;;;8.40;;
13335;SDS011;6737;51.480;11.962;2023-04-22T03:14:42;11.07;;;7.50;;
13335;SDS011;6737;51.480;11.962;2023-04-22T03:17:08;10.60;;;7.73;;
13335;SDS011;6737;51.480;11.962;2023-04-22T03:19:33;11.97;;;8.13;;
13335;SDS011;6737;51.480;11.962;2023-04-22T03:21:59;11.60;;;8.03;;
13335;SDS011;6737;51.480;11.962;2023-04-22T03:24:25;11.33;;;8.37;;
13335;SDS011;6737;51.480;11.962;2023-04-22T03:26:51;11.43;;;8.53;;
13335;SDS011;6737;51.480;11.962;2023-04-22T03:29:16;9.80;;;8.47;;
13335;SDS011;6737;51.480;11.962;2023-04-22T03:31:42;12.33;;;8.27;;
13335;SDS011;6737;51.480;11.962;2023-04-22T03:34:08;10.70;;;8.10;;
13335;SDS011;6737;51.480;11.962;2023-04-22T03:36:34;14.17;;;8.53;;
13335;SDS011;6737;51.480;11.962;2023-04-22T03:38:59;12.20;;;8.40;;
13335;SDS011;6737;51.480;11.962;2023-04-22T03:41:25;12.43;;;8.30;;
13335;SDS011;6737;51.480;11.962;2023-04-22T03:43:51;11.50;;;8.33;;
13335;SDS011;6737;51.480;11.962;2023-04-22T03:46:17;10.93;;;8.30;;
13335;SDS011;6737;51.480;11.962;2023-04-22T03:48:43;12.40;;;8.33;;
13335;SDS011;6737;51.480;11.962;2023-04-22T03:51:08;13.63;;;9.80;;
13335;SDS011;6737;51.480;11.962;2023-04-22T03:53:34;13.02;;;10.30;;
13335;SDS011;6737;51.480;11.962;2023-04-22T03:56:00;12.32;;;10.10;;
13335;SDS011;6737;51.480;11.962;2023-04-22T03:58:26;11.27;;;9.57;;
13335;SDS011;6737;51.480;11.962;2023-04-22T04:00:51;14.27;;;9.88;;
13335;SDS011;6737;51.480;11.962;2023-04-22T04:03:17;14.57;;;10.23;;
13335;SDS011;6737;51.480;11.962;2023-04-22T04:05:43;12.93;;;10.70;;
13335;SDS011;6737;51.480;11.962;2023-04-22T04:08:09;17.00;;;9.98;;
13335;SDS011;6737;51.480;11.962;2023-04-22T04:10:35;14.40;;;10.40;;
13335;SDS011;6737;51.480;11.962;2023-04-22T04:13:01;11.57;;;9.97;;
13335;SDS011;6737;51.480;11.962;2023-04-22T04:15:27;14.23;;;10.30;;
13335;SDS011;6737;51.480;11.962;2023-04-22T04:17:53;13.43;;;10.48;;
13335;SDS011;6737;51.480;11.962;2023-04-22T04:20:21;13.15;;;10.45;;
13335;SDS011;6737;51.480;11.962;2023-04-22T04:22:46;12.10;;;10.25;;
13335;SDS011;6737;51.480;11.962;2023-04-22T04:25:12;11.90;;;10.48;;
13335;SDS011;6737;51.480;11.962;2023-04-22T04:27:38;15.20;;;10.57;;
13335;SDS011;6737;51.480;11.962;2023-04-22T04:30:06;12.65;;;10.63;;
13335;SDS011;6737;51.480;11.962;2023-04-22T04:32:32;14.18;;;10.70;;
13335;SDS011;6737;51.480;11.962;2023-04-22T04:34:58;12.65;;;11.02;;
13335;SDS011;6737;51.480;11.962;2023-04-22T04:37:25;13.23;;;10.80;;
13335;SDS011;6737;51.480;11.962;2023-04-22T04:39:51;14.50;;;10.83;;
13335;SDS011;6737;51.480;11.962;2023-04-22T04:42:17;13.52;;;10.15;;
13335;SDS011;6737;51.480;11.962;2023-04-22T04:44:44;13.02;;;10.23;;
13335;SDS011;6737;51.480;11.962;2023-04-22T04:47:11;12.45;;;10.20;;
13335;SDS011;6737;51.480;11.962;2023-04-22T04:49:39;14.32;;;10.55;;
13335;SDS011;6737;51.480;11.962;2023-04-22T04:52:05;13.35;;;10.55;;
13335;SDS011;6737;51.480;11.962;2023-04-22T04:54:35;13.37;;;10.17;;
13335;SDS011;6737;51.480;11.962;2023-04-22T04:57:01;12.27;;;10.23;;
13335;SDS011;6737;51.480;11.962;2023-04-22T04:59:27;13.07;;;10.27;;
13335;SDS011;6737;51.480;11.962;2023-04-22T05:01:53;13.18;;;9.73;;
13335;SDS011;6737;51.480;11.962;2023-04-22T05:04:20;12.15;;;9.10;;
13335;SDS011;6737;51.480;11.962;2023-04-22T05:06:46;11.83;;;9.03;;
13335;SDS011;6737;51.480;11.962;2023-04-22T05:09:11;12.50;;;8.60;;
13335;SDS011;6737;51.480;11.962;2023-04-22T05:11:37;12.55;;;8.27;;
13335;SDS011;6737;51.480;11.962;2023-04-22T05:14:04;11.63;;;8.47;;
13335;SDS011;6737;51.480;11.962;2023-04-22T05:16:30;11.10;;;8.15;;
13335;SDS011;6737;51.480;11.962;2023-04-22T05:18:56;9.93;;;8.30;;
13335;SDS011;6737;51.480;11.962;2023-04-22T05:21:22;12.23;;;8.40;;
13335;SDS011;6737;51.480;11.962;2023-04-22T05:23:48;11.95;;;8.10;;
13335;SDS011;6737;51.480;11.962;2023-04-22T05:26:13;11.18;;;7.90;;
13335;SDS011;6737;51.480;11.962;2023-04-22T05:28:39;10.73;;;8.00;;
13335;SDS011;6737;51.480;11.962;2023-04-22T05:31:05;9.53;;;7.90;;
13335;SDS011;6737;51.480;11.962;2023-04-22T05:33:31;10.85;;;7.90;;
13335;SDS011;6737;51.480;11.962;2023-04-22T05:35:57;11.68;;;7.82;;
13335;SDS011;6737;51.480;11.962;2023-04-22T05:38:22;12.87;;;7.60;;
13335;SDS011;6737;51.480;11.962;2023-04-22T05:40:48;10.73;;;7.50;;
13335;SDS011;6737;51.480;11.962;2023-04-22T05:43:14;12.03;;;7.30;;
13335;SDS011;6737;51.480;11.962;2023-04-22T05:45:40;9.60;;;7.37;;
13335;SDS011;6737;51.480;11.962;2023-04-22T05:48:06;11.10;;;7.40;;
13335;SDS011;6737;51.480;11.962;2023-04-22T05:50:31;10.93;;;7.43;;
13335;SDS011;6737;51.480;11.962;2023-04-22T05:52:57;10.90;;;7.57;;
13335;SDS011;6737;51.480;11.962;2023-04-22T05:55:23;11.63;;;7.63;;
13335;SDS011;6737;51.480;11.962;2023-04-22T05:57:49;12.43;;;7.60;;
13335;SDS011;6737;51.480;11.962;2023-04-22T06:00:15;10.47;;;7.17;;
13335;SDS011;6737;51.480;11.962;2023-04-22T06:02:42;9.97;;;7.43;;
13335;SDS011;6737;51.480;11.962;2023-04-22T06:05:07;9.87;;;7.60;;
13335;SDS011;6737;51.480;11.962;2023-04-22T06:07:33;10.67;;;7.23;;
13335;SDS011;6737;51.480;11.962;2023-04-22T06:09:59;9.27;;;7.10;;
13335;SDS011;6737;51.480;11.962;2023-04-22T06:12:25;10.67;;;7.07;;
13335;SDS011;6737;51.480;11.962;2023-04-22T06:14:51;17.23;;;7.60;;
13335;SDS011;6737;51.480;11.962;2023-04-22T06:17:17;11.70;;;7.70;;
13335;SDS011;6737;51.480;11.962;2023-04-22T06:19:43;10.20;;;7.17;;
13335;SDS011;6737;51.480;11.962;2023-04-22T06:22:08;8.80;;;7.33;;
13335;SDS011;6737;51.480;11.962;2023-04-22T06:24:34;12.47;;;7.33;;
13335;SDS011;6737;51.480;11.962;2023-04-22T06:27:00;10.27;;;7.47;;
13335;SDS011;6737;51.480;11.962;2023-04-22T06:29:27;9.13;;;7.20;;
13335;SDS011;6737;51.480;11.962;2023-04-22T06:31:53;9.93;;;7.07;;
13335;SDS011;6737;51.480;11.962;2023-04-22T06:34:19;9.23;;;6.77;;
13335;SDS011;6737;51.480;11.962;2023-04-22T06:36:45;8.70;;;6.80;;
13335;SDS011;6737;51.480;11.962;2023-04-22T06:39:11;10.77;;;7.30;;
13335;SDS011;6737;51.480;11.962;2023-04-22T06:41:37;8.93;;;6.80;;
13335;SDS011;6737;51.480;11.962;2023-04-22T06:44:02;9.03;;;6.30;;
13335;SDS011;6737;51.480;11.962;2023-04-22T06:46:28;12.73;;;6.93;;
13335;SDS011;6737;51.480;11.962;2023-04-22T06:48:54;11.17;;;6.70;;
13335;SDS011;6737;51.480;11.962;2023-04-22T06:51:20;8.80;;;6.60;;
13335;SDS011;6737;51.480;11.962;2023-04-22T06:53:45;12.30;;;7.13;;
13335;SDS011;6737;51.480;11.962;2023-04-22T06:56:11;9.23;;;6.90;;
13335;SDS011;6737;51.480;11.962;2023-04-22T06:58:37;7.20;;;6.23;;
13335;SDS011;6737;51.480;11.962;2023-04-22T07:01:03;12.10;;;6.60;;
13335;SDS011;6737;51.480;11.962;2023-04-22T07:03:28;11.97;;;6.70;;
13335;SDS011;6737;51.480;11.962;2023-04-22T07:05:54;10.10;;;6.43;;
13335;SDS011;6737;51.480;11.962;2023-04-22T07:08:20;8.47;;;6.13;;
13335;SDS011;6737;51.480;11.962;2023-04-22T07:10:46;10.33;;;6.00;;
13335;SDS011;6737;51.480;11.962;2023-04-22T07:13:12;10.57;;;6.50;;
13335;SDS011;6737;51.480;11.962;2023-04-22T07:15:37;9.80;;;6.07;;
13335;SDS011;6737;51.480;11.962;2023-04-22T07:18:03;8.87;;;5.60;;
13335;SDS011;6737;51.480;11.962;2023-04-22T07:20:29;9.27;;;5.70;;
13335;SDS011;6737;51.480;11.962;2023-04-22T07:22:55;7.47;;;5.17;;
13335;SDS011;6737;51.480;11.962;2023-04-22T07:25:20;10.70;;;5.77;;
13335;SDS011;6737;51.480;11.962;2023-04-22T07:27:46;9.67;;;4.63;;
13335;SDS011;6737;51.480;11.962;2023-04-22T07:30:12;7.07;;;4.70;;
13335;SDS011;6737;51.480;11.962;2023-04-22T07:32:38;8.83;;;4.17;;
13335;SDS011;6737;51.480;11.962;2023-04-22T07:35:04;7.57;;;4.40;;
13335;SDS011;6737;51.480;11.962;2023-04-22T07:37:30;7.93;;;4.33;;
13335;SDS011;6737;51.480;11.962;2023-04-22T07:39:56;6.13;;;3.92;;
13335;SDS011;6737;51.480;11.962;2023-04-22T07:42:21;6.80;;;3.85;;
13335;SDS011;6737;51.480;11.962;2023-04-22T07:44:47;6.60;;;3.80;;
13335;SDS011;6737;51.480;11.962;2023-04-22T07:47:13;7.85;;;3.70;;
13335;SDS011;6737;51.480;11.962;2023-04-22T07:49:39;6.78;;;3.90;;
13335;SDS011;6737;51.480;11.962;2023-04-22T07:52:05;6.22;;;3.50;;
13335;SDS011;6737;51.480;11.962;2023-04-22T07:54:30;7.85;;;3.83;;
13335;SDS011;6737;51.480;11.962;2023-04-22T07:56:56;9.75;;;3.30;;
13335;SDS011;6737;51.480;11.962;2023-04-22T07:59:22;9.05;;;3.28;;
13335;SDS011;6737;51.480;11.962;2023-04-22T08:01:49;6.32;;;3.47;;
13335;SDS011;6737;51.480;11.962;2023-04-22T08:04:15;4.03;;;3.08;;
13335;SDS011;6737;51.480;11.962;2023-04-22T08:06:41;6.68;;;3.58;;
13335;SDS011;6737;51.480;11.962;2023-04-22T08:09:07;9.52;;;3.10;;
13335;SDS011;6737;51.480;11.962;2023-04-22T08:11:34;8.43;;;3.05;;
13335;SDS011;6737;51.480;11.962;2023-04-22T08:14:00;7.35;;;3.42;;
13335;SDS011;6737;51.480;11.962;2023-04-22T08:16:26;8.93;;;3.50;;
13335;SDS011;6737;51.480;11.962;2023-04-22T08:18:52;9.18;;;3.15;;
13335;SDS011;6737;51.480;11.962;2023-04-22T08:21:18;10.00;;;3.30;;
13335;SDS011;6737;51.480;11.962;2023-04-22T08:23:43;7.75;;;3.20;;
13335;SDS011;6737;51.480;11.962;2023-04-22T08:26:09;5.90;;;3.30;;
13335;SDS011;6737;51.480;11.962;2023-04-22T08:28:39;6.53;;;3.30;;
13335;SDS011;6737;51.480;11.962;2023-04-22T08:31:06;5.25;;;2.95;;
13335;SDS011;6737;51.480;11.962;2023-04-22T08:33:33;11.07;;;3.00;;
13335;SDS011;6737;51.480;11.962;2023-04-22T08:35:59;8.38;;;3.05;;
13335;SDS011;6737;51.480;11.962;2023-04-22T08:38:27;9.43;;;3.00;;
13335;SDS011;6737;51.480;11.962;2023-04-22T08:40:56;5.22;;;3.10;;
13335;SDS011;6737;51.480;11.962;2023-04-22T08:43:24;6.78;;;3.22;;
13335;SDS011;6737;51.480;11.962;2023-04-22T08:45:51;8.75;;;3.25;;
13335;SDS011;6737;51.480;11.962;2023-04-22T08:48:17;8.40;;;3.25;;
13335;SDS011;6737;51.480;11.962;2023-04-22T08:50:44;7.25;;;3.25;;
13335;SDS011;6737;51.480;11.962;2023-04-22T08:53:11;6.85;;;3.30;;
13335;SDS011;6737;51.480;11.962;2023-04-22T08:55:37;8.10;;;3.45;;
13335;SDS011;6737;51.480;11.962;2023-04-22T08:58:07;5.68;;;3.25;;
13335;SDS011;6737;51.480;11.962;2023-04-22T09:00:35;5.55;;;3.28;;
13335;SDS011;6737;51.480;11.962;2023-04-22T09:03:01;8.57;;;3.38;;
13335;SDS011;6737;51.480;11.962;2023-04-22T09:05:31;8.10;;;3.35;;
13335;SDS011;6737;51.480;11.962;2023-04-22T09:07:58;6.97;;;3.03;;
13335;SDS011;6737;51.480;11.962;2023-04-22T09:10:25;5.53;;;3.00;;
13335;SDS011;6737;51.480;11.962;2023-04-22T09:12:50;5.72;;;2.92;;
13335;SDS011;6737;51.480;11.962;2023-04-22T09:15:17;4.97;;;2.92;;
13335;SDS011;6737;51.480;11.962;2023-04-22T09:17:43;5.90;;;2.95;;
13335;SDS011;6737;51.480;11.962;2023-04-22T09:20:09;5.35;;;2.80;;
13335;SDS011;6737;51.480;11.962;2023-04-22T09:22:40;11.48;;;3.63;;
13335;SDS011;6737;51.480;11.962;2023-04-22T09:25:17;6.80;;;3.13;;
13335;SDS011;6737;51.480;11.962;2023-04-22T09:27:51;6.35;;;3.25;;
13335;SDS011;6737;51.480;11.962;2023-04-22T09:32:54;7.07;;;2.90;;
13335;SDS011;6737;51.480;11.962;2023-04-22T09:37:58;7.20;;;3.00;;
13335;SDS011;6737;51.480;11.962;2023-04-22T09:40:24;7.57;;;3.28;;
13335;SDS011;6737;51.480;11.962;2023-04-22T09:42:51;6.75;;;3.28;;
13335;SDS011;6737;51.480;11.962;2023-04-22T09:45:38;8.43;;;3.50;;
13335;SDS011;6737;51.480;11.962;2023-04-22T09:50:39;5.75;;;3.03;;
13335;SDS011;6737;51.480;11.962;2023-04-22T09:53:08;6.93;;;3.35;;
13335;SDS011;6737;51.480;11.962;2023-04-22T09:55:37;7.15;;;3.20;;
13335;SDS011;6737;51.480;11.962;2023-04-22T09:58:09;5.85;;;2.92;;
13335;SDS011;6737;51.480;11.962;2023-04-22T10:00:50;8.50;;;3.38;;
13335;SDS011;6737;51.480;11.962;2023-04-22T10:03:21;11.30;;;3.15;;
13335;SDS011;6737;51.480;11.962;2023-04-22T10:05:47;9.48;;;3.22;;
13335;SDS011;6737;51.480;11.962;2023-04-22T10:08:13;6.82;;;3.45;;
13335;SDS011;6737;51.480;11.962;2023-04-22T10:10:41;5.68;;;3.17;;
13335;SDS011;6737;51.480;11.962;2023-04-22T10:13:07;6.07;;;3.22;;
13335;SDS011;6737;51.480;11.962;2023-04-22T10:15:40;9.38;;;3.28;;
13335;SDS011;6737;51.480;11.962;2023-04-22T10:18:11;6.70;;;3.25;;
13335;SDS011;6737;51.480;11.962;2023-04-22T10:20:41;8.27;;;3.72;;
13335;SDS011;6737;51.480;11.962;2023-04-22T10:23:12;6.03;;;3.55;;
13335;SDS011;6737;51.480;11.962;2023-04-22T10:25:40;6.03;;;3.08;;
13335;SDS011;6737;51.480;11.962;2023-04-22T10:28:09;4.88;;;3.15;;
13335;SDS011;6737;51.480;11.962;2023-04-22T10:30:37;9.20;;;3.10;;
13335;SDS011;6737;51.480;11.962;2023-04-22T10:36:16;5.47;;;2.63;;
13335;SDS011;6737;51.480;11.962;2023-04-22T10:41:22;6.10;;;3.03;;
13335;SDS011;6737;51.480;11.962;2023-04-22T10:43:58;6.03;;;3.28;;
13335;SDS011;6737;51.480;11.962;2023-04-22T10:49:20;7.78;;;3.33;;
13335;SDS011;6737;51.480;11.962;2023-04-22T10:51:48;10.23;;;3.15;;
13335;SDS011;6737;51.480;11.962;2023-04-22T10:57:05;8.20;;;2.92;;
13335;SDS011;6737;51.480;11.962;2023-04-22T10:59:45;4.57;;;3.00;;
13335;SDS011;6737;51.480;11.962;2023-04-22T11:02:15;6.20;;;3.05;;
13335;SDS011;6737;51.480;11.962;2023-04-22T11:04:41;7.78;;;3.40;;
13335;SDS011;6737;51.480;11.962;2023-04-22T11:09:45;5.40;;;2.60;;
13335;SDS011;6737;51.480;11.962;2023-04-22T11:17:30;4.68;;;2.50;;
13335;SDS011;6737;51.480;11.962;2023-04-22T11:19:58;5.68;;;2.80;;
13335;SDS011;6737;51.480;11.962;2023-04-22T11:22:25;5.32;;;2.53;;
13335;SDS011;6737;51.480;11.962;2023-04-22T11:24:54;5.25;;;2.42;;
13335;SDS011;6737;51.480;11.962;2023-04-22T11:27:20;5.00;;;2.50;;
13335;SDS011;6737;51.480;11.962;2023-04-22T11:30:00;6.82;;;2.47;;
13335;SDS011;6737;51.480;11.962;2023-04-22T11:32:27;8.52;;;2.90;;
13335;SDS011;6737;51.480;11.962;2023-04-22T11:34:53;6.63;;;2.53;;
13335;SDS011;6737;51.480;11.962;2023-04-22T11:37:20;5.20;;;2.20;;
13335;SDS011;6737;51.480;11.962;2023-04-22T11:39:47;5.43;;;2.40;;
13335;SDS011;6737;51.480;11.962;2023-04-22T11:42:15;4.82;;;2.20;;
13335;SDS011;6737;51.480;11.962;2023-04-22T11:44:45;6.07;;;2.60;;
13335;SDS011;6737;51.480;11.962;2023-04-22T11:47:11;3.42;;;2.00;;
13335;SDS011;6737;51.480;11.962;2023-04-22T11:49:37;3.70;;;2.28;;
13335;SDS011;6737;51.480;11.962;2023-04-22T11:52:03;2.85;;;1.90;;
13335;SDS011;6737;51.480;11.962;2023-04-22T11:54:32;4.45;;;2.10;;
13335;SDS011;6737;51.480;11.962;2023-04-22T11:57:00;3.83;;;1.88;;
13335;SDS011;6737;51.480;11.962;2023-04-22T11:59:27;4.22;;;2.15;;
13335;SDS011;6737;51.480;11.962;2023-04-22T12:01:53;5.93;;;2.30;;
13335;SDS011;6737;51.480;11.962;2023-04-22T12:04:21;3.88;;;2.10;;
13335;SDS011;6737;51.480;11.962;2023-04-22T12:06:48;5.32;;;2.40;;
13335;SDS011;6737;51.480;11.962;2023-04-22T12:09:16;2.80;;;2.10;;
13335;SDS011;6737;51.480;11.962;2023-04-22T12:11:45;3.55;;;2.30;;
13335;SDS011;6737;51.480;11.962;2023-04-22T12:14:11;4.25;;;2.40;;
13335;SDS011;6737;51.480;11.962;2023-04-22T12:16:40;4.57;;;2.30;;
13335;SDS011;6737;51.480;11.962;2023-04-22T12:19:06;5.20;;;2.33;;
13335;SDS011;6737;51.480;11.962;2023-04-22T12:21:32;3.72;;;2.30;;
13335;SDS011;6737;51.480;11.962;2023-04-22T12:23:59;5.22;;;2.35;;
13335;SDS011;6737;51.480;11.962;2023-04-22T12:26:29;3.95;;;2.53;;
13335;SDS011;6737;51.480;11.962;2023-04-22T12:28:56;3.65;;;2.00;;
13335;SDS011;6737;51.480;11.962;2023-04-22T12:31:23;4.95;;;2.58;;
13335;SDS011;6737;51.480;11.962;2023-04-22T12:33:49;6.03;;;2.40;;
13335;SDS011;6737;51.480;11.962;2023-04-22T12:36:16;2.78;;;2.20;;
13335;SDS011;6737;51.480;11.962;2023-04-22T12:38:42;4.60;;;2.47;;
13335;SDS011;6737;51.480;11.962;2023-04-22T12:41:08;4.72;;;2.22;;
13335;SDS011;6737;51.480;11.962;2023-04-22T12:43:34;5.18;;;2.40;;
13335;SDS011;6737;51.480;11.962;2023-04-22T12:46:01;6.75;;;2.83;;
13335;SDS011;6737;51.480;11.962;2023-04-22T12:48:27;3.58;;;2.42;;
13335;SDS011;6737;51.480;11.962;2023-04-22T12:50:53;5.47;;;2.55;;
13335;SDS011;6737;51.480;11.962;2023-04-22T12:53:19;4.22;;;2.33;;
13335;SDS011;6737;51.480;11.962;2023-04-22T12:55:46;3.15;;;2.00;;
13335;SDS011;6737;51.480;11.962;2023-04-22T12:58:12;3.22;;;2.20;;
13335;SDS011;6737;51.480;11.962;2023-04-22T13:00:38;5.72;;;2.22;;
13335;SDS011;6737;51.480;11.962;2023-04-22T13:03:04;5.38;;;2.67;;
13335;SDS011;6737;51.480;11.962;2023-04-22T13:05:30;3.95;;;2.42;;
13335;SDS011;6737;51.480;11.962;2023-04-22T13:07:56;4.85;;;2.50;;
13335;SDS011;6737;51.480;11.962;2023-04-22T13:10:22;4.13;;;2.40;;
13335;SDS011;6737;51.480;11.962;2023-04-22T13:12:52;3.92;;;2.30;;
13335;SDS011;6737;51.480;11.962;2023-04-22T13:15:18;4.35;;;2.28;;
13335;SDS011;6737;51.480;11.962;2023-04-22T13:17:45;3.78;;;2.40;;
13335;SDS011;6737;51.480;11.962;2023-04-22T13:20:12;6.28;;;2.70;;
13335;SDS011;6737;51.480;11.962;2023-04-22T13:22:39;4.28;;;2.67;;
13335;SDS011;6737;51.480;11.962;2023-04-22T13:25:05;3.33;;;2.40;;
13335;SDS011;6737;51.480;11.962;2023-04-22T13:27:32;5.60;;;2.88;;
13335;SDS011;6737;51.480;11.962;2023-04-22T13:29:58;4.95;;;2.40;;
13335;SDS011;6737;51.480;11.962;2023-04-22T13:32:24;5.15;;;2.70;;
13335;SDS011;6737;51.480;11.962;2023-04-22T13:34:50;5.25;;;2.70;;
13335;SDS011;6737;51.480;11.962;2023-04-22T13:37:16;6.35;;;2.75;;
13335;SDS011;6737;51.480;11.962;2023-04-22T13:39:44;6.35;;;2.70;;
13335;SDS011;6737;51.480;11.962;2023-04-22T13:42:10;4.63;;;2.70;;
13335;SDS011;6737;51.480;11.962;2023-04-22T13:44:36;11.05;;;2.70;;
13335;SDS011;6737;51.480;11.962;2023-04-22T13:47:02;6.70;;;2.60;;
13335;SDS011;6737;51.480;11.962;2023-04-22T13:49:27;4.53;;;2.85;;
13335;SDS011;6737;51.480;11.962;2023-04-22T13:51:53;5.07;;;2.65;;
13335;SDS011;6737;51.480;11.962;2023-04-22T13:54:19;3.17;;;2.22;;
13335;SDS011;6737;51.480;11.962;2023-04-22T13:56:45;5.63;;;2.47;;
13335;SDS011;6737;51.480;11.962;2023-04-22T13:59:11;3.80;;;2.33;;
13335;SDS011;6737;51.480;11.962;2023-04-22T14:01:37;6.00;;;2.40;;
13335;SDS011;6737;51.480;11.962;2023-04-22T14:04:03;4.93;;;2.42;;
13335;SDS011;6737;51.480;11.962;2023-04-22T14:06:29;5.63;;;2.33;;
13335;SDS011;6737;51.480;11.962;2023-04-22T14:08:55;4.65;;;2.53;;
13335;SDS011;6737;51.480;11.962;2023-04-22T14:11:21;3.22;;;2.40;;
13335;SDS011;6737;51.480;11.962;2023-04-22T14:13:46;5.35;;;2.65;;
13335;SDS011;6737;51.480;11.962;2023-04-22T14:16:12;6.75;;;2.38;;
13335;SDS011;6737;51.480;11.962;2023-04-22T14:18:39;4.13;;;2.45;;
13335;SDS011;6737;51.480;11.962;2023-04-22T14:21:06;5.07;;;2.50;;
13335;SDS011;6737;51.480;11.962;2023-04-22T14:23:36;4.00;;;2.30;;
13335;SDS011;6737;51.480;11.962;2023-04-22T14:26:03;4.00;;;2.28;;
13335;SDS011;6737;51.480;11.962;2023-04-22T14:28:30;4.97;;;2.55;;
13335;SDS011;6737;51.480;11.962;2023-04-22T14:30:56;4.35;;;2.60;;
13335;SDS011;6737;51.480;11.962;2023-04-22T14:33:22;5.90;;;2.25;;
13335;SDS011;6737;51.480;11.962;2023-04-22T14:35:49;5.05;;;2.20;;
13335;SDS011;6737;51.480;11.962;2023-04-22T14:38:16;4.72;;;2.25;;
13335;SDS011;6737;51.480;11.962;2023-04-22T14:40:43;6.50;;;2.60;;
13335;SDS011;6737;51.480;11.962;2023-04-22T14:43:09;3.42;;;2.33;;
13335;SDS011;6737;51.480;11.962;2023-04-22T14:45:34;3.15;;;2.03;;
13335;SDS011;6737;51.480;11.962;2023-04-22T14:48:00;4.35;;;2.50;;
13335;SDS011;6737;51.480;11.962;2023-04-22T14:50:27;4.40;;;2.30;;
13335;SDS011;6737;51.480;11.962;2023-04-22T14:52:53;4.10;;;2.38;;
13335;SDS011;6737;51.480;11.962;2023-04-22T14:55:19;5.55;;;2.38;;
13335;SDS011;6737;51.480;11.962;2023-04-22T14:57:45;3.65;;;2.28;;
13335;SDS011;6737;51.480;11.962;2023-04-22T15:00:12;2.95;;;2.20;;
13335;SDS011;6737;51.480;11.962;2023-04-22T15:02:38;2.63;;;2.03;;
13335;SDS011;6737;51.480;11.962;2023-04-22T15:05:04;8.90;;;2.40;;